createdAt,value
2022-12-08T00:01:46.328Z,18.30
2022-12-08T00:04:17.296Z,18.29
2022-12-08T00:07:05.770Z,18.29
2022-12-08T00:09:39.983Z,18.31
2022-12-08T00:12:15.334Z,18.32
2022-12-08T00:14:47.449Z,18.29
2022-12-08T00:17:18.820Z,18.26
2022-12-08T00:19:50.581Z,18.25
2022-12-08T00:22:21.443Z,18.24
2022-12-08T00:24:52.445Z,18.23
2022-12-08T00:27:23.330Z,18.22
2022-12-08T00:29:54.249Z,18.19
2022-12-08T00:32:25.032Z,18.10
2022-12-08T00:34:55.826Z,18.17
2022-12-08T00:37:26.657Z,18.15
2022-12-08T00:39:57.679Z,18.16
2022-12-08T00:42:28.445Z,18.19
2022-12-08T00:44:59.184Z,18.24
2022-12-08T00:47:30.017Z,18.29
2022-12-08T00:50:01.531Z,18.31
2022-12-08T00:52:32.526Z,18.37
2022-12-08T00:55:03.247Z,18.34
2022-12-08T00:57:34.437Z,18.34
2022-12-08T01:00:06.154Z,18.35
2022-12-08T01:02:37.283Z,18.34
2022-12-08T01:05:09.241Z,18.31
2022-12-08T01:07:40.147Z,18.26
2022-12-08T01:10:12.169Z,18.22
2022-12-08T01:12:43.050Z,18.20
2022-12-08T01:15:14.267Z,18.17
2022-12-08T01:17:45.026Z,18.14
2022-12-08T01:20:16.205Z,18.15
2022-12-08T01:22:47.016Z,18.23
2022-12-08T01:25:17.739Z,18.30
2022-12-08T01:27:48.580Z,18.28
2022-12-08T01:30:20.316Z,18.22
2022-12-08T01:32:51.164Z,18.14
2022-12-08T01:35:22.007Z,18.07
2022-12-08T01:37:53.063Z,18.01
2022-12-08T01:40:24.095Z,17.99
2022-12-08T01:42:54.795Z,18.02
2022-12-08T01:45:28.649Z,18.03
2022-12-08T01:48:04.686Z,18.06
2022-12-08T01:50:36.681Z,18.06
2022-12-08T01:53:14.941Z,18.10
2022-12-08T01:55:51.061Z,18.15
2022-12-08T01:58:26.218Z,18.21
2022-12-08T02:00:57.269Z,18.22
2022-12-08T02:03:32.898Z,18.22
2022-12-08T02:06:04.774Z,18.20
2022-12-08T02:08:37.423Z,18.20
2022-12-08T02:11:12.571Z,18.19
2022-12-08T02:13:47.362Z,18.23
2022-12-08T02:16:31.151Z,18.24
2022-12-08T02:19:30.697Z,18.21
2022-12-08T02:22:07.922Z,18.17
2022-12-08T02:24:42.208Z,18.11
2022-12-08T02:27:29.608Z,18.12
2022-12-08T02:30:20.263Z,18.14
2022-12-08T02:33:19.550Z,18.20
2022-12-08T02:35:58.150Z,18.24
2022-12-08T02:38:44.527Z,18.24
2022-12-08T02:41:27.540Z,18.23
2022-12-08T02:44:07.599Z,18.22
2022-12-08T02:46:39.466Z,18.24
2022-12-08T02:49:10.844Z,18.24
2022-12-08T02:51:41.527Z,18.25
2022-12-08T02:54:13.017Z,18.23
2022-12-08T02:57:01.582Z,18.18
2022-12-08T02:59:46.735Z,18.20
2022-12-08T03:02:36.361Z,18.20
2022-12-08T03:05:14.836Z,18.16
2022-12-08T03:07:51.899Z,18.13
2022-12-08T03:10:28.999Z,18.05
2022-12-08T03:13:05.483Z,18.01
2022-12-08T03:15:38.771Z,18.04
2022-12-08T03:18:12.103Z,18.09
2022-12-08T03:20:44.382Z,18.13
2022-12-08T03:23:17.528Z,18.20
2022-12-08T03:25:53.091Z,18.26
2022-12-08T03:28:24.376Z,18.32
2022-12-08T03:31:01.576Z,18.37
2022-12-08T03:33:38.154Z,18.43
2022-12-08T03:36:12.319Z,18.48
2022-12-08T03:38:44.438Z,18.52
2022-12-08T03:41:21.011Z,18.56
2022-12-08T03:43:53.819Z,18.56
2022-12-08T03:48:57.398Z,18.64
2022-12-08T03:51:28.461Z,18.66
2022-12-08T03:53:59.305Z,18.68
2022-12-08T03:56:32.605Z,18.70
2022-12-08T03:59:03.759Z,18.69
2022-12-08T04:01:34.947Z,18.74
2022-12-08T04:04:06.178Z,18.76
2022-12-08T04:06:37.127Z,18.78
2022-12-08T04:09:07.982Z,18.81
2022-12-08T04:11:39.071Z,18.86
2022-12-08T04:14:10.114Z,18.91
2022-12-08T04:16:40.750Z,18.95
2022-12-08T04:19:11.441Z,18.99
2022-12-08T04:21:42.177Z,19.02
2022-12-08T04:24:12.863Z,19.05
2022-12-08T04:26:43.473Z,19.09
2022-12-08T04:29:14.135Z,19.10
2022-12-08T04:31:45.119Z,19.13
2022-12-08T04:34:15.834Z,19.14
2022-12-08T04:36:46.404Z,19.16
2022-12-08T04:39:16.978Z,19.17
2022-12-08T04:41:47.719Z,19.18
2022-12-08T04:44:18.520Z,19.19
2022-12-08T04:46:49.325Z,19.19
2022-12-08T04:49:20.238Z,19.20
2022-12-08T04:51:51.059Z,19.20
2022-12-08T04:54:21.716Z,19.19
2022-12-08T04:56:52.505Z,19.21
2022-12-08T04:59:23.115Z,19.26
2022-12-08T05:01:54.114Z,19.30
2022-12-08T05:04:25.470Z,19.35
2022-12-08T05:06:56.091Z,19.36
2022-12-08T05:09:27.074Z,19.36
2022-12-08T05:11:57.667Z,19.38
2022-12-08T05:14:28.734Z,19.41
2022-12-08T05:17:00.309Z,19.43
2022-12-08T05:19:31.652Z,19.46
2022-12-08T05:22:02.210Z,19.48
2022-12-08T05:24:32.865Z,19.53
2022-12-08T05:27:03.746Z,19.57
2022-12-08T05:29:34.405Z,19.61
2022-12-08T05:32:05.117Z,19.64
2022-12-08T05:34:35.910Z,19.68
2022-12-08T05:37:06.486Z,19.71
2022-12-08T05:39:37.246Z,19.73
2022-12-08T05:42:08.129Z,19.70
2022-12-08T05:44:39.128Z,19.76
2022-12-08T05:47:09.716Z,19.77
2022-12-08T05:49:40.313Z,19.77
2022-12-08T05:52:10.934Z,19.77
2022-12-08T05:54:41.517Z,19.77
2022-12-08T05:57:12.366Z,19.77
2022-12-08T05:59:43.151Z,19.77
2022-12-08T06:02:13.877Z,19.76
2022-12-08T06:04:44.933Z,19.76
2022-12-08T06:07:16.277Z,19.75
2022-12-08T06:09:47.048Z,19.74
2022-12-08T06:12:17.689Z,19.73
2022-12-08T06:14:48.358Z,19.71
2022-12-08T06:17:18.931Z,19.69
2022-12-08T06:19:49.664Z,19.68
2022-12-08T06:22:20.409Z,19.69
2022-12-08T06:24:51.268Z,19.67
2022-12-08T06:27:22.705Z,19.67
2022-12-08T06:29:53.479Z,19.67
2022-12-08T06:32:27.596Z,19.66
2022-12-08T06:34:58.519Z,19.64
2022-12-08T06:37:30.025Z,19.65
2022-12-08T06:40:00.722Z,19.64
2022-12-08T06:42:47.347Z,19.64
2022-12-08T06:45:19.583Z,19.63
2022-12-08T06:47:50.235Z,19.62
2022-12-08T06:50:21.324Z,19.60
2022-12-08T06:53:01.001Z,19.57
2022-12-08T06:55:57.832Z,19.55
2022-12-08T06:58:26.581Z,19.55
2022-12-08T07:00:57.280Z,19.54
2022-12-08T07:03:27.963Z,19.50
2022-12-08T07:06:03.838Z,19.48
2022-12-08T07:08:35.764Z,19.45
2022-12-08T07:11:12.376Z,19.39
2022-12-08T07:13:45.170Z,19.35
2022-12-08T07:16:16.012Z,19.30
2022-12-08T07:18:46.784Z,19.24
2022-12-08T07:21:18.892Z,19.21
2022-12-08T07:23:56.021Z,19.16
2022-12-08T07:26:28.721Z,19.09
2022-12-08T07:29:00.941Z,19.04
2022-12-08T07:31:31.641Z,18.98
2022-12-08T07:34:02.360Z,18.92
2022-12-08T07:36:33.745Z,18.88
2022-12-08T07:39:04.614Z,18.85
2022-12-08T07:41:35.225Z,18.79
2022-12-08T07:44:06.163Z,18.82
2022-12-08T07:46:36.879Z,18.78
2022-12-08T07:49:07.555Z,18.74
2022-12-08T07:51:38.146Z,18.70
2022-12-08T07:54:12.493Z,18.67
2022-12-08T07:56:43.250Z,18.64
2022-12-08T07:59:14.698Z,18.61
2022-12-08T08:01:45.848Z,18.59
2022-12-08T08:04:17.031Z,18.57
2022-12-08T08:06:47.753Z,18.54
2022-12-08T08:09:18.417Z,18.51
2022-12-08T08:12:14.366Z,18.51
2022-12-08T08:14:40.013Z,18.51
2022-12-08T08:17:10.776Z,18.50
2022-12-08T08:19:42.007Z,18.50
2022-12-08T08:22:12.627Z,18.48
2022-12-08T08:24:45.095Z,18.46
2022-12-08T08:27:16.309Z,18.46
2022-12-08T08:29:47.192Z,18.47
2022-12-08T08:32:17.815Z,18.45
2022-12-08T08:34:48.464Z,18.46
2022-12-08T08:37:19.243Z,18.46
2022-12-08T08:39:49.947Z,18.47
2022-12-08T08:42:20.923Z,18.46
2022-12-08T08:44:51.518Z,18.47
2022-12-08T08:47:22.105Z,18.48
2022-12-08T08:49:53.036Z,18.49
2022-12-08T08:52:23.633Z,18.53
2022-12-08T08:54:54.443Z,18.56
2022-12-08T08:57:26.045Z,18.58
2022-12-08T08:59:56.967Z,18.61
2022-12-08T09:02:27.596Z,18.62
2022-12-08T09:04:58.311Z,18.63
2022-12-08T09:07:29.187Z,18.67
2022-12-08T09:10:02.069Z,18.66
2022-12-08T09:12:33.113Z,18.63
2022-12-08T09:15:03.672Z,18.59
2022-12-08T09:17:34.400Z,18.59
2022-12-08T09:20:05.746Z,18.60
2022-12-08T09:22:36.885Z,18.62
2022-12-08T09:25:08.779Z,18.62
2022-12-08T09:27:39.379Z,18.62
2022-12-08T09:30:11.816Z,18.62
2022-12-08T09:32:42.483Z,18.62
2022-12-08T09:35:13.308Z,18.63
2022-12-08T09:37:44.021Z,18.62
2022-12-08T09:40:19.913Z,18.60
2022-12-08T09:42:56.523Z,18.58
2022-12-08T09:45:31.326Z,18.56
2022-12-08T09:48:07.215Z,18.53
2022-12-08T09:50:41.934Z,18.50
2022-12-08T09:53:17.126Z,18.47
2022-12-08T09:55:51.984Z,18.46
2022-12-08T09:58:28.830Z,18.45
2022-12-08T10:01:00.007Z,18.42
2022-12-08T10:03:32.501Z,18.42
2022-12-08T10:06:08.898Z,18.40
2022-12-08T10:08:48.695Z,18.38
2022-12-08T10:11:27.833Z,18.36
2022-12-08T10:14:09.676Z,18.34
2022-12-08T10:16:47.220Z,18.32
2022-12-08T10:19:22.746Z,18.29
2022-12-08T10:21:54.484Z,18.26
2022-12-08T10:24:33.589Z,18.24
2022-12-08T10:27:06.721Z,18.23
2022-12-08T10:29:37.679Z,18.20
2022-12-08T10:32:19.335Z,18.20
2022-12-08T10:35:05.764Z,18.20
2022-12-08T10:37:36.797Z,18.14
2022-12-08T10:40:12.480Z,18.14
2022-12-08T10:42:47.205Z,18.18
2022-12-08T10:45:26.876Z,18.26
2022-12-08T10:48:04.202Z,18.36
2022-12-08T10:50:42.294Z,18.42
2022-12-08T10:53:20.909Z,18.39
2022-12-08T10:55:54.005Z,18.33
2022-12-08T10:58:35.427Z,18.26
2022-12-08T11:01:12.362Z,18.17
2022-12-08T11:03:50.187Z,18.10
2022-12-08T11:06:24.784Z,18.11
2022-12-08T11:08:57.680Z,18.10
2022-12-08T11:11:48.640Z,18.09
2022-12-08T11:14:24.924Z,18.10
2022-12-08T11:17:03.271Z,18.11
2022-12-08T11:19:38.209Z,18.15
2022-12-08T11:22:24.112Z,18.20
2022-12-08T11:25:03.481Z,18.21
2022-12-08T11:27:36.705Z,18.22
2022-12-08T11:30:17.396Z,18.22
2022-12-08T11:32:50.269Z,18.20
2022-12-08T11:35:30.686Z,18.19
2022-12-08T11:38:20.506Z,18.18
2022-12-08T11:40:55.353Z,18.16
2022-12-08T11:43:27.239Z,18.13
2022-12-08T11:46:02.745Z,18.10
2022-12-08T11:48:37.301Z,18.07
2022-12-08T11:51:13.435Z,18.05
2022-12-08T11:53:50.112Z,18.03
2022-12-08T11:56:25.138Z,18.03
2022-12-08T11:59:00.478Z,18.02
2022-12-08T12:01:31.218Z,18.00
2022-12-08T12:04:18.991Z,17.96
2022-12-08T12:07:19.412Z,17.90
2022-12-08T12:10:14.500Z,17.89
2022-12-08T12:12:57.205Z,17.92
2022-12-08T12:15:46.015Z,17.90
2022-12-08T12:18:28.806Z,17.93
2022-12-08T12:21:03.007Z,17.95
2022-12-08T12:23:41.088Z,17.95
2022-12-08T12:26:19.650Z,17.96
2022-12-08T12:28:54.511Z,17.97
2022-12-08T12:31:29.790Z,17.98
2022-12-08T12:34:09.594Z,17.99
2022-12-08T12:36:53.389Z,17.98
2022-12-08T12:39:29.372Z,17.95
2022-12-08T12:42:02.173Z,17.98
2022-12-08T12:44:44.390Z,17.99
2022-12-08T12:47:37.285Z,17.97
2022-12-08T12:50:13.400Z,17.97
2022-12-08T12:52:48.986Z,17.96
2022-12-08T12:55:58.644Z,17.97
2022-12-08T12:58:42.959Z,17.96
2022-12-08T13:01:53.998Z,17.93
2022-12-08T13:04:33.885Z,17.88
2022-12-08T13:07:05.581Z,17.88
2022-12-08T13:09:41.601Z,17.88
2022-12-08T13:12:24.280Z,17.89
2022-12-08T13:14:59.642Z,17.86
2022-12-08T13:17:31.996Z,17.84
2022-12-08T13:20:06.256Z,17.83
2022-12-08T13:23:04.670Z,17.84
2022-12-08T13:26:15.584Z,17.80
2022-12-08T13:29:17.728Z,17.73
2022-12-08T13:31:52.087Z,17.67
2022-12-08T13:34:29.328Z,17.63
2022-12-08T13:37:08.939Z,17.61
2022-12-08T13:39:47.877Z,17.56
2022-12-08T13:42:27.383Z,17.56
2022-12-08T13:45:24.130Z,17.52
2022-12-08T13:57:08.516Z,17.42
2022-12-08T13:59:36.565Z,17.39
2022-12-08T14:02:18.772Z,17.37
2022-12-08T14:07:42.505Z,17.31
2022-12-08T14:10:20.730Z,17.33
2022-12-08T14:12:58.267Z,17.35
2022-12-08T14:15:35.513Z,17.32
2022-12-08T14:18:22.506Z,17.30
2022-12-08T14:21:21.573Z,17.29
2022-12-08T14:23:52.435Z,17.28
2022-12-08T14:26:23.647Z,17.30
2022-12-08T14:28:54.387Z,17.33
2022-12-08T14:31:25.348Z,17.36
2022-12-08T14:33:56.736Z,17.35
2022-12-08T14:36:29.073Z,17.33
2022-12-08T14:39:00.180Z,17.30
2022-12-08T14:41:35.285Z,17.28
2022-12-08T14:44:24.073Z,17.27
2022-12-08T14:47:09.429Z,17.25
2022-12-08T14:49:41.354Z,17.21
2022-12-08T14:52:15.787Z,17.23
2022-12-08T14:54:47.659Z,17.23
2022-12-08T14:57:18.969Z,17.22
2022-12-08T14:59:50.726Z,17.20
2022-12-08T15:02:34.761Z,17.20
2022-12-08T15:05:13.142Z,17.16
2022-12-08T15:07:50.954Z,17.16
2022-12-08T15:10:29.539Z,17.16
2022-12-08T15:13:02.763Z,17.13
2022-12-08T15:15:47.980Z,17.12
2022-12-08T15:18:22.128Z,17.11
2022-12-08T15:20:56.874Z,17.10
2022-12-08T15:23:32.597Z,17.08
2022-12-08T15:26:05.418Z,17.07
2022-12-08T15:28:36.097Z,17.05
2022-12-08T15:31:07.365Z,17.06
2022-12-08T15:33:38.162Z,17.06
2022-12-08T15:36:09.955Z,17.06
2022-12-08T15:38:40.691Z,17.05
2022-12-08T15:41:15.003Z,17.05
2022-12-08T15:43:46.136Z,17.05
2022-12-08T15:46:16.914Z,17.04
2022-12-08T15:48:47.919Z,17.03
2022-12-08T15:51:18.608Z,17.03
2022-12-08T15:53:49.232Z,17.01
2022-12-08T15:56:27.506Z,17.00
2022-12-08T15:58:59.210Z,16.98
2022-12-08T16:01:30.396Z,16.96
2022-12-08T16:09:46.657Z,16.93
2022-12-08T16:16:01.797Z,16.89
2022-12-08T16:18:27.994Z,16.89
2022-12-08T16:21:12.409Z,16.88
2022-12-08T16:23:49.906Z,16.91
2022-12-08T16:27:13.875Z,16.92
2022-12-08T16:29:21.106Z,16.95
2022-12-08T16:31:52.009Z,17.00
2022-12-08T16:34:22.775Z,16.96
2022-12-08T16:36:53.619Z,17.03
2022-12-08T16:39:24.776Z,17.18
2022-12-08T16:42:13.715Z,17.36
2022-12-08T16:44:44.608Z,17.42
2022-12-08T16:47:15.703Z,17.52
2022-12-08T16:49:46.478Z,17.61
2022-12-08T16:52:17.897Z,17.68
2022-12-08T16:54:48.838Z,17.75
2022-12-08T16:57:19.585Z,17.82
2022-12-08T16:59:50.532Z,17.88
2022-12-08T17:02:21.253Z,17.99
2022-12-08T17:04:51.994Z,18.11
2022-12-08T17:07:22.725Z,18.19
2022-12-08T17:09:53.689Z,18.26
2022-12-08T17:12:24.550Z,18.32
2022-12-08T17:14:55.236Z,18.39
2022-12-08T17:17:25.988Z,18.46
2022-12-08T17:19:56.882Z,18.47
2022-12-08T17:22:27.733Z,18.57
2022-12-08T17:24:58.513Z,18.61
2022-12-08T17:27:29.746Z,18.66
2022-12-08T17:30:00.402Z,18.72
2022-12-08T17:32:31.411Z,18.77
2022-12-08T17:35:02.231Z,18.83
2022-12-08T17:37:33.391Z,18.87
2022-12-08T17:40:04.709Z,18.90
2022-12-08T17:42:35.647Z,18.95
2022-12-08T17:45:08.397Z,18.99
2022-12-08T17:47:39.588Z,19.04
2022-12-08T17:50:11.867Z,19.11
2022-12-08T17:52:44.321Z,19.17
2022-12-08T17:55:15.144Z,19.18
2022-12-08T17:57:46.450Z,19.26
2022-12-08T18:00:18.874Z,19.31
2022-12-08T18:02:50.110Z,19.37
2022-12-08T18:05:20.956Z,19.41
2022-12-08T18:07:52.258Z,19.45
2022-12-08T18:10:23.089Z,19.45
2022-12-08T18:12:54.275Z,19.44
2022-12-08T18:15:25.854Z,19.46
2022-12-08T18:17:56.706Z,19.47
2022-12-08T18:20:28.174Z,19.49
2022-12-08T18:22:59.112Z,19.49
2022-12-08T18:25:30.306Z,19.53
2022-12-08T18:28:01.223Z,19.64
2022-12-08T18:30:32.286Z,19.69
2022-12-08T18:33:06.450Z,19.67
2022-12-08T18:35:39.500Z,19.66
2022-12-08T18:38:10.379Z,19.68
2022-12-08T18:40:41.772Z,19.69
2022-12-08T18:43:12.867Z,19.72
2022-12-08T18:45:43.665Z,19.73
2022-12-08T18:48:14.709Z,19.75
2022-12-08T18:50:45.934Z,19.76
2022-12-08T18:53:16.725Z,19.77
2022-12-08T18:55:50.965Z,19.80
2022-12-08T18:58:22.214Z,19.81
2022-12-08T19:00:52.962Z,19.82
2022-12-08T19:03:23.792Z,19.85
2022-12-08T19:06:06.695Z,19.88
2022-12-08T19:08:37.677Z,19.91
2022-12-08T19:11:17.633Z,19.94
2022-12-08T19:13:46.900Z,19.97
2022-12-08T19:16:31.283Z,19.97
2022-12-08T19:19:02.476Z,20.00
2022-12-08T19:21:34.120Z,20.03
2022-12-08T19:24:07.988Z,20.04
2022-12-08T19:26:37.108Z,20.06
2022-12-08T19:29:08.405Z,20.06
2022-12-08T19:31:39.502Z,20.08
2022-12-08T19:34:11.559Z,20.11
2022-12-08T19:36:43.508Z,20.13
2022-12-08T19:39:35.310Z,20.15
2022-12-08T19:42:24.962Z,20.16
2022-12-08T19:44:56.145Z,20.18
2022-12-08T19:47:28.557Z,20.19
2022-12-08T19:50:13.423Z,20.21
2022-12-08T19:52:44.844Z,20.22
2022-12-08T19:55:16.282Z,20.24
2022-12-08T19:57:47.495Z,20.26
2022-12-08T20:00:20.699Z,20.28
2022-12-08T20:02:51.952Z,20.25
2022-12-08T20:05:23.411Z,20.29
2022-12-08T20:07:56.249Z,20.32
2022-12-08T20:10:30.135Z,20.33
2022-12-08T20:13:13.440Z,20.35
2022-12-08T20:15:44.661Z,20.35
2022-12-08T20:18:17.115Z,20.37
2022-12-08T20:20:48.706Z,20.39
2022-12-08T20:23:19.615Z,20.41
2022-12-08T20:25:50.366Z,20.42
2022-12-08T20:28:21.488Z,20.44
2022-12-08T20:30:52.739Z,20.46
2022-12-08T20:33:23.858Z,20.47
2022-12-08T20:36:02.786Z,20.49
2022-12-08T20:38:33.858Z,20.46
2022-12-08T20:41:09.003Z,20.50
2022-12-08T20:43:40.011Z,20.51
2022-12-08T20:46:12.703Z,20.53
2022-12-08T20:48:43.595Z,20.55
2022-12-08T20:51:18.176Z,20.56
2022-12-08T20:53:49.280Z,20.56
2022-12-08T20:56:22.010Z,20.57
2022-12-08T20:58:53.960Z,20.59
2022-12-08T21:01:26.416Z,20.60
2022-12-08T21:03:57.595Z,20.62
2022-12-08T21:06:29.052Z,20.63
2022-12-08T21:09:00.010Z,20.66
2022-12-08T21:11:30.892Z,20.67
2022-12-08T21:14:01.805Z,20.69
2022-12-08T21:16:32.911Z,20.69
2022-12-08T21:19:03.767Z,20.69
2022-12-08T21:21:35.034Z,20.69
2022-12-08T21:24:07.884Z,20.67
2022-12-08T21:26:38.903Z,20.67
2022-12-08T21:29:10.066Z,20.67
2022-12-08T21:31:41.809Z,20.64
2022-12-08T21:34:13.144Z,20.63
2022-12-08T21:36:43.989Z,20.62
2022-12-08T21:39:14.705Z,20.61
2022-12-08T21:42:03.512Z,20.60
2022-12-08T21:44:36.285Z,20.58
2022-12-08T21:47:07.608Z,20.56
2022-12-08T21:49:38.508Z,20.55
2022-12-08T21:52:09.465Z,20.54
2022-12-08T21:54:40.248Z,20.52
2022-12-08T21:57:12.495Z,20.50
2022-12-08T21:59:43.792Z,20.50
2022-12-08T22:02:20.953Z,20.45
2022-12-08T22:04:53.892Z,20.47
2022-12-08T22:07:24.768Z,20.46
2022-12-08T22:09:55.727Z,20.45
2022-12-08T22:12:26.728Z,20.45
2022-12-08T22:14:57.535Z,20.43
2022-12-08T22:17:28.353Z,20.43
2022-12-08T22:19:59.151Z,20.41
2022-12-08T22:22:29.951Z,20.38
2022-12-08T22:25:00.758Z,20.32
2022-12-08T22:27:31.910Z,20.31
2022-12-08T22:30:02.911Z,20.28
2022-12-08T22:32:34.332Z,20.27
2022-12-08T22:35:05.668Z,20.24
2022-12-08T22:37:36.480Z,20.22
2022-12-08T22:40:09.635Z,20.22
2022-12-08T22:42:41.228Z,20.24
2022-12-08T22:45:13.189Z,20.25
2022-12-08T22:47:43.857Z,20.20
2022-12-08T22:50:15.017Z,20.16
2022-12-08T22:52:45.833Z,20.13
2022-12-08T22:55:16.709Z,20.12
2022-12-08T22:57:47.426Z,20.09
2022-12-08T23:00:19.527Z,20.08
2022-12-08T23:02:50.260Z,20.06
2022-12-08T23:05:21.292Z,20.01
2022-12-08T23:07:53.460Z,19.96
2022-12-08T23:10:24.779Z,19.93
2022-12-08T23:12:59.220Z,19.92
2022-12-08T23:15:33.552Z,19.86
2022-12-08T23:18:04.544Z,19.79
2022-12-08T23:20:36.195Z,19.70
2022-12-08T23:23:06.985Z,19.65
2022-12-08T23:25:40.434Z,19.64
2022-12-08T23:28:14.374Z,19.63
2022-12-08T23:30:45.217Z,19.65
2022-12-08T23:33:16.249Z,19.66
2022-12-08T23:35:47.210Z,19.66
2022-12-08T23:38:17.964Z,19.65
2022-12-08T23:40:48.600Z,19.64
2022-12-08T23:43:19.334Z,19.62
2022-12-08T23:45:50.699Z,19.58
2022-12-08T23:48:21.890Z,19.57
2022-12-08T23:50:52.707Z,19.54
2022-12-08T23:53:24.072Z,19.57
2022-12-08T23:56:01.444Z,19.58
2022-12-08T23:58:32.904Z,19.60
